sensor_id;sensor_type;location;lat;lon;timestamp;pressure;altitude;pressure_sealevel;temperature;humidity
63343;BME280;49465;57.664;39.686;2022-12-19T00:02:18;101222.16;;;-7.53;53.85
63343;BME280;49465;57.664;39.686;2022-12-19T00:04:54;101226.81;;;-7.36;53.86
63343;BME280;49465;57.664;39.686;2022-12-19T00:07:28;101226.19;;;-7.25;53.36
63343;BME280;49465;57.664;39.686;2022-12-19T00:10:02;101229.41;;;-7.34;53.16
63343;BME280;49465;57.664;39.686;2022-12-19T00:12:34;101227.59;;;-7.38;53.92
63343;BME280;49465;57.664;39.686;2022-12-19T00:15:06;101215.16;;;-7.26;53.35
63343;BME280;49465;57.664;39.686;2022-12-19T00:17:41;101217.72;;;-7.96;53.31
63343;BME280;49465;57.664;39.686;2022-12-19T00:20:18;101218.31;;;-7.36;53.18
63343;BME280;49465;57.664;39.686;2022-12-19T00:22:50;101227.00;;;-7.28;53.15
63343;BME280;49465;57.664;39.686;2022-12-19T00:25:28;101231.28;;;-7.27;52.96
63343;BME280;49465;57.664;39.686;2022-12-19T00:28:06;101238.03;;;-7.29;52.81
63343;BME280;49465;57.664;39.686;2022-12-19T00:30:37;101224.38;;;-7.31;52.96
63343;BME280;49465;57.664;39.686;2022-12-19T00:33:12;101234.50;;;-7.34;53.04
63343;BME280;49465;57.664;39.686;2022-12-19T00:35:38;101239.56;;;-7.36;53.13
63343;BME280;49465;57.664;39.686;2022-12-19T00:38:18;101247.09;;;-7.40;53.16
63343;BME280;49465;57.664;39.686;2022-12-19T00:41:02;101242.81;;;-7.43;52.93
63343;BME280;49465;57.664;39.686;2022-12-19T00:43:55;101230.97;;;-7.41;52.99
63343;BME280;49465;57.664;39.686;2022-12-19T00:46:28;101238.47;;;-8.12;53.35
63343;BME280;49465;57.664;39.686;2022-12-19T00:49:02;101232.28;;;-7.55;53.28
63343;BME280;49465;57.664;39.686;2022-12-19T00:51:35;101232.16;;;-8.26;52.72
63343;BME280;49465;57.664;39.686;2022-12-19T00:54:11;101235.53;;;-7.62;53.06
63343;BME280;49465;57.664;39.686;2022-12-19T00:56:51;101235.53;;;-7.61;52.65
63343;BME280;49465;57.664;39.686;2022-12-19T00:59:31;101231.38;;;-7.57;53.02
63343;BME280;49465;57.664;39.686;2022-12-19T01:02:01;101226.25;;;-7.59;52.88
63343;BME280;49465;57.664;39.686;2022-12-19T01:04:41;101232.28;;;-7.55;52.85
63343;BME280;49465;57.664;39.686;2022-12-19T01:07:11;101247.56;;;-7.55;52.77
63343;BME280;49465;57.664;39.686;2022-12-19T01:09:54;101255.03;;;-7.63;52.91
63343;BME280;49465;57.664;39.686;2022-12-19T01:12:31;101248.00;;;-8.35;53.49
63343;BME280;49465;57.664;39.686;2022-12-19T01:15:20;101237.63;;;-7.79;53.32
63343;BME280;49465;57.664;39.686;2022-12-19T01:17:49;101231.00;;;-7.74;53.06
63343;BME280;49465;57.664;39.686;2022-12-19T01:20:20;101223.28;;;-8.09;53.97
63343;BME280;49465;57.664;39.686;2022-12-19T01:22:55;101228.28;;;-8.12;53.92
63343;BME280;49465;57.664;39.686;2022-12-19T01:25:33;101221.72;;;-8.04;53.98
63343;BME280;49465;57.664;39.686;2022-12-19T01:28:09;101229.06;;;-7.83;53.22
63343;BME280;49465;57.664;39.686;2022-12-19T01:30:42;101214.63;;;-7.82;53.66
63343;BME280;49465;57.664;39.686;2022-12-19T01:33:17;101207.84;;;-8.48;54.15
63343;BME280;49465;57.664;39.686;2022-12-19T01:35:52;101215.19;;;-8.58;53.74
63343;BME280;49465;57.664;39.686;2022-12-19T01:38:30;101216.97;;;-7.91;53.06
63343;BME280;49465;57.664;39.686;2022-12-19T01:41:05;101222.41;;;-7.78;52.99
63343;BME280;49465;57.664;39.686;2022-12-19T01:43:59;101208.88;;;-7.75;52.99
63343;BME280;49465;57.664;39.686;2022-12-19T01:46:45;101208.91;;;-7.73;52.87
63343;BME280;49465;57.664;39.686;2022-12-19T01:49:32;101213.03;;;-7.79;52.90
63343;BME280;49465;57.664;39.686;2022-12-19T01:52:07;101203.78;;;-7.75;52.91
63343;BME280;49465;57.664;39.686;2022-12-19T01:54:43;101212.31;;;-7.73;52.76
63343;BME280;49465;57.664;39.686;2022-12-19T01:57:15;101211.44;;;-8.70;53.52
63343;BME280;49465;57.664;39.686;2022-12-19T01:59:55;101220.28;;;-7.94;52.68
63343;BME280;49465;57.664;39.686;2022-12-19T02:02:36;101208.66;;;-8.49;53.75
63343;BME280;49465;57.664;39.686;2022-12-19T02:05:09;101196.41;;;-7.99;52.79
63343;BME280;49465;57.664;39.686;2022-12-19T02:07:44;101200.03;;;-7.89;52.94
63343;BME280;49465;57.664;39.686;2022-12-19T02:10:16;101202.53;;;-8.56;53.48
63343;BME280;49465;57.664;39.686;2022-12-19T02:12:56;101204.19;;;-7.93;52.80
63343;BME280;49465;57.664;39.686;2022-12-19T02:15:35;101196.81;;;-7.82;52.54
63343;BME280;49465;57.664;39.686;2022-12-19T02:18:37;101203.63;;;-7.81;52.22
63343;BME280;49465;57.664;39.686;2022-12-19T02:21:41;101205.34;;;-7.80;52.58
63343;BME280;49465;57.664;39.686;2022-12-19T02:24:38;101207.81;;;-7.83;52.36
63343;BME280;49465;57.664;39.686;2022-12-19T02:32:46;101196.19;;;-8.07;52.20
63343;BME280;49465;57.664;39.686;2022-12-19T02:38:21;101188.81;;;-7.96;52.42
63343;BME280;49465;57.664;39.686;2022-12-19T02:43:46;101173.94;;;-8.14;52.23
63343;BME280;49465;57.664;39.686;2022-12-19T02:46:18;101193.66;;;-8.07;52.14
63343;BME280;49465;57.664;39.686;2022-12-19T02:48:51;101183.75;;;-8.90;52.39
63343;BME280;49465;57.664;39.686;2022-12-19T02:51:22;101183.91;;;-8.22;52.71
63343;BME280;49465;57.664;39.686;2022-12-19T02:53:54;101193.50;;;-8.13;52.26
63343;BME280;49465;57.664;39.686;2022-12-19T02:56:37;101196.09;;;-8.10;52.35
63343;BME280;49465;57.664;39.686;2022-12-19T02:59:14;101186.81;;;-8.08;52.30
63343;BME280;49465;57.664;39.686;2022-12-19T03:02:36;101180.78;;;-8.13;52.39
63343;BME280;49465;57.664;39.686;2022-12-19T03:05:30;101175.59;;;-8.16;52.42
63343;BME280;49465;57.664;39.686;2022-12-19T03:08:23;101179.03;;;-8.14;52.39
63343;BME280;49465;57.664;39.686;2022-12-19T03:11:12;101179.81;;;-8.17;52.31
63343;BME280;49465;57.664;39.686;2022-12-19T03:13:56;101173.91;;;-8.79;53.31
63343;BME280;49465;57.664;39.686;2022-12-19T03:16:24;101170.81;;;-8.36;52.53
63343;BME280;49465;57.664;39.686;2022-12-19T03:19:05;101172.25;;;-9.07;53.87
63343;BME280;49465;57.664;39.686;2022-12-19T03:21:43;101165.75;;;-9.26;54.53
63343;BME280;49465;57.664;39.686;2022-12-19T03:24:16;101166.34;;;-8.46;52.81
63343;BME280;49465;57.664;39.686;2022-12-19T03:26:55;101163.16;;;-8.99;54.33
63343;BME280;49465;57.664;39.686;2022-12-19T03:29:39;101169.84;;;-8.42;53.66
63343;BME280;49465;57.664;39.686;2022-12-19T03:32:16;101165.75;;;-8.36;52.47
63343;BME280;49465;57.664;39.686;2022-12-19T03:34:51;101158.44;;;-8.23;52.74
63343;BME280;49465;57.664;39.686;2022-12-19T03:37:27;101153.44;;;-8.20;52.80
63343;BME280;49465;57.664;39.686;2022-12-19T03:39:59;101152.63;;;-8.18;52.35
63343;BME280;49465;57.664;39.686;2022-12-19T03:42:41;101148.38;;;-8.19;52.17
63343;BME280;49465;57.664;39.686;2022-12-19T03:48:14;101166.25;;;-8.17;52.45
63343;BME280;49465;57.664;39.686;2022-12-19T03:53:56;101150.88;;;-8.20;53.05
63343;BME280;49465;57.664;39.686;2022-12-19T03:59:33;101165.00;;;-8.31;53.34
63343;BME280;49465;57.664;39.686;2022-12-19T04:02:13;101156.78;;;-8.21;53.09
63343;BME280;49465;57.664;39.686;2022-12-19T04:04:47;101168.59;;;-8.23;53.25
63343;BME280;49465;57.664;39.686;2022-12-19T04:07:24;101166.16;;;-8.20;52.98
63343;BME280;49465;57.664;39.686;2022-12-19T04:10:00;101170.50;;;-8.16;52.88
63343;BME280;49465;57.664;39.686;2022-12-19T04:12:35;101156.06;;;-8.16;52.61
63343;BME280;49465;57.664;39.686;2022-12-19T04:15:07;101156.88;;;-8.18;53.04
63343;BME280;49465;57.664;39.686;2022-12-19T04:20:16;101143.41;;;-8.14;52.83
63343;BME280;49465;57.664;39.686;2022-12-19T04:23:02;101148.50;;;-8.14;53.12
63343;BME280;49465;57.664;39.686;2022-12-19T04:25:59;101146.84;;;-8.12;52.89
63343;BME280;49465;57.664;39.686;2022-12-19T04:29:09;101152.84;;;-8.10;53.07
63343;BME280;49465;57.664;39.686;2022-12-19T04:31:41;101165.41;;;-8.16;52.92
63343;BME280;49465;57.664;39.686;2022-12-19T04:34:10;101150.97;;;-9.11;54.53
63343;BME280;49465;57.664;39.686;2022-12-19T04:36:47;101156.63;;;-8.27;53.65
63343;BME280;49465;57.664;39.686;2022-12-19T04:39:17;101149.25;;;-8.18;53.38
63343;BME280;49465;57.664;39.686;2022-12-19T04:41:43;101146.84;;;-8.12;53.65
63343;BME280;49465;57.664;39.686;2022-12-19T04:44:12;101139.97;;;-9.10;54.70
63343;BME280;49465;57.664;39.686;2022-12-19T04:46:39;101137.09;;;-8.28;54.33
63343;BME280;49465;57.664;39.686;2022-12-19T04:49:10;101134.88;;;-8.16;53.25
63343;BME280;49465;57.664;39.686;2022-12-19T04:51:37;101129.03;;;-8.12;53.70
63343;BME280;49465;57.664;39.686;2022-12-19T04:54:09;101133.31;;;-8.11;53.73
63343;BME280;49465;57.664;39.686;2022-12-19T04:56:46;101121.44;;;-8.10;53.52
63343;BME280;49465;57.664;39.686;2022-12-19T04:59:21;101121.47;;;-8.09;53.56
63343;BME280;49465;57.664;39.686;2022-12-19T05:01:53;101111.34;;;-8.06;53.34
63343;BME280;49465;57.664;39.686;2022-12-19T05:04:30;101112.84;;;-8.81;55.57
63343;BME280;49465;57.664;39.686;2022-12-19T05:07:02;101127.16;;;-8.19;53.83
63343;BME280;49465;57.664;39.686;2022-12-19T05:09:34;101129.94;;;-8.10;53.29
63343;BME280;49465;57.664;39.686;2022-12-19T05:12:11;101119.91;;;-8.04;53.49
63343;BME280;49465;57.664;39.686;2022-12-19T05:14:48;101110.41;;;-8.78;55.26
63343;BME280;49465;57.664;39.686;2022-12-19T05:17:25;101114.56;;;-8.15;54.30
63343;BME280;49465;57.664;39.686;2022-12-19T05:19:55;101108.00;;;-8.05;53.63
63343;BME280;49465;57.664;39.686;2022-12-19T05:22:26;101109.00;;;-7.98;53.26
63343;BME280;49465;57.664;39.686;2022-12-19T05:24:57;101109.41;;;-8.83;55.65
63343;BME280;49465;57.664;39.686;2022-12-19T05:27:30;101117.09;;;-8.15;55.05
63343;BME280;49465;57.664;39.686;2022-12-19T05:30:06;101118.25;;;-8.02;55.34
63343;BME280;49465;57.664;39.686;2022-12-19T05:32:38;101103.91;;;-7.98;54.34
63343;BME280;49465;57.664;39.686;2022-12-19T05:35:09;101093.72;;;-7.98;54.19
63343;BME280;49465;57.664;39.686;2022-12-19T05:37:48;101098.91;;;-7.95;53.85
63343;BME280;49465;57.664;39.686;2022-12-19T05:40:24;101110.09;;;-8.58;56.13
63343;BME280;49465;57.664;39.686;2022-12-19T05:43:01;101104.47;;;-8.10;55.52
63343;BME280;49465;57.664;39.686;2022-12-19T05:45:27;101101.44;;;-8.95;56.70
63343;BME280;49465;57.664;39.686;2022-12-19T05:48:03;101101.13;;;-8.09;55.98
63343;BME280;49465;57.664;39.686;2022-12-19T05:50:34;101096.44;;;-8.92;55.93
63343;BME280;49465;57.664;39.686;2022-12-19T05:53:06;101106.28;;;-8.06;55.44
63343;BME280;49465;57.664;39.686;2022-12-19T05:55:39;101107.94;;;-8.75;56.30
63343;BME280;49465;57.664;39.686;2022-12-19T05:58:08;101115.63;;;-8.05;55.04
63343;BME280;49465;57.664;39.686;2022-12-19T06:00:45;101114.31;;;-7.89;54.37
63343;BME280;49465;57.664;39.686;2022-12-19T06:03:18;101114.47;;;-7.83;54.40
63343;BME280;49465;57.664;39.686;2022-12-19T06:05:50;101103.47;;;-7.82;54.70
63343;BME280;49465;57.664;39.686;2022-12-19T06:08:22;101106.44;;;-8.66;56.45
63343;BME280;49465;57.664;39.686;2022-12-19T06:10:53;101109.13;;;-7.93;55.07
63343;BME280;49465;57.664;39.686;2022-12-19T06:13:32;101106.88;;;-7.81;55.07
63343;BME280;49465;57.664;39.686;2022-12-19T06:16:15;101107.81;;;-7.78;55.16
63343;BME280;49465;57.664;39.686;2022-12-19T06:18:53;101104.56;;;-8.42;56.39
63343;BME280;49465;57.664;39.686;2022-12-19T06:21:24;101100.75;;;-7.89;55.68
63343;BME280;49465;57.664;39.686;2022-12-19T06:23:54;101101.88;;;-7.77;54.59
63343;BME280;49465;57.664;39.686;2022-12-19T06:26:25;101096.00;;;-7.74;54.95
63343;BME280;49465;57.664;39.686;2022-12-19T06:28:55;101099.41;;;-7.73;55.87
63343;BME280;49465;57.664;39.686;2022-12-19T06:31:23;101096.03;;;-7.72;55.36
63343;BME280;49465;57.664;39.686;2022-12-19T06:33:54;101091.81;;;-7.70;55.62
63343;BME280;49465;57.664;39.686;2022-12-19T06:36:25;101091.88;;;-7.69;55.28
63343;BME280;49465;57.664;39.686;2022-12-19T06:38:58;101078.28;;;-7.69;55.49
63343;BME280;49465;57.664;39.686;2022-12-19T06:41:30;101081.69;;;-7.69;55.98
63343;BME280;49465;57.664;39.686;2022-12-19T06:44:20;101073.00;;;-8.50;57.48
63343;BME280;49465;57.664;39.686;2022-12-19T06:46:50;101074.66;;;-7.79;56.57
63343;BME280;49465;57.664;39.686;2022-12-19T06:49:22;101066.94;;;-8.53;58.18
63343;BME280;49465;57.664;39.686;2022-12-19T06:51:53;101076.19;;;-8.57;58.08
63343;BME280;49465;57.664;39.686;2022-12-19T06:54:25;101072.13;;;-7.79;56.14
63343;BME280;49465;57.664;39.686;2022-12-19T06:56:55;101064.88;;;-7.61;56.28
63343;BME280;49465;57.664;39.686;2022-12-19T06:59:23;101065.50;;;-8.44;57.71
63343;BME280;49465;57.664;39.686;2022-12-19T07:04:41;101063.81;;;-7.70;56.28
63343;BME280;49465;57.664;39.686;2022-12-19T07:07:08;101059.06;;;-7.55;56.26
63343;BME280;49465;57.664;39.686;2022-12-19T07:09:37;101064.31;;;-7.47;55.84
63343;BME280;49465;57.664;39.686;2022-12-19T07:12:06;101056.25;;;-8.40;57.96
63343;BME280;49465;57.664;39.686;2022-12-19T07:17:10;101056.72;;;-7.46;55.85
63343;BME280;49465;57.664;39.686;2022-12-19T07:19:43;101055.16;;;-7.39;55.19
63343;BME280;49465;57.664;39.686;2022-12-19T07:22:15;101048.38;;;-8.15;57.54
63343;BME280;49465;57.664;39.686;2022-12-19T07:24:46;101047.13;;;-8.32;58.30
63343;BME280;49465;57.664;39.686;2022-12-19T07:27:15;101054.47;;;-8.44;58.30
63343;BME280;49465;57.664;39.686;2022-12-19T07:29:44;101051.34;;;-8.32;59.39
63343;BME280;49465;57.664;39.686;2022-12-19T07:32:19;101051.34;;;-8.32;58.93
63343;BME280;49465;57.664;39.686;2022-12-19T07:34:51;101049.75;;;-8.29;59.57
63343;BME280;49465;57.664;39.686;2022-12-19T07:37:22;101051.59;;;-7.47;58.43
63343;BME280;49465;57.664;39.686;2022-12-19T07:39:48;101043.03;;;-8.25;59.11
63343;BME280;49465;57.664;39.686;2022-12-19T07:42:18;101050.06;;;-7.39;58.05
63343;BME280;49465;57.664;39.686;2022-12-19T07:44:48;101058.03;;;-7.24;58.03
63343;BME280;49465;57.664;39.686;2022-12-19T07:47:27;101046.28;;;-7.16;56.55
63343;BME280;49465;57.664;39.686;2022-12-19T07:49:53;101045.56;;;-7.10;56.31
63343;BME280;49465;57.664;39.686;2022-12-19T07:52:20;101037.13;;;-7.07;56.55
63343;BME280;49465;57.664;39.686;2022-12-19T07:54:46;101044.41;;;-8.03;58.74
63343;BME280;49465;57.664;39.686;2022-12-19T07:57:18;101055.63;;;-7.95;60.56
63343;BME280;49465;57.664;39.686;2022-12-19T07:59:50;101042.66;;;-7.28;59.57
63343;BME280;49465;57.664;39.686;2022-12-19T08:02:19;101037.09;;;-7.09;57.70
63343;BME280;49465;57.664;39.686;2022-12-19T08:04:45;101036.44;;;-6.99;57.61
63343;BME280;49465;57.664;39.686;2022-12-19T08:07:12;101042.50;;;-6.93;56.92
63343;BME280;49465;57.664;39.686;2022-12-19T08:09:43;101046.47;;;-7.87;58.81
63343;BME280;49465;57.664;39.686;2022-12-19T08:12:10;101044.81;;;-7.04;56.84
63343;BME280;49465;57.664;39.686;2022-12-19T08:14:36;101039.13;;;-6.91;56.20
63343;BME280;49465;57.664;39.686;2022-12-19T08:17:05;101035.03;;;-6.83;55.60
63343;BME280;49465;57.664;39.686;2022-12-19T08:19:36;101036.56;;;-7.76;58.01
63343;BME280;49465;57.664;39.686;2022-12-19T08:22:03;101030.41;;;-7.84;59.35
63343;BME280;49465;57.664;39.686;2022-12-19T08:24:29;101033.75;;;-7.87;60.08
63343;BME280;49465;57.664;39.686;2022-12-19T08:26:56;101021.22;;;-6.94;57.72
63343;BME280;49465;57.664;39.686;2022-12-19T08:29:23;101014.72;;;-6.78;57.35
63343;BME280;49465;57.664;39.686;2022-12-19T08:31:49;101014.75;;;-7.63;58.95
63343;BME280;49465;57.664;39.686;2022-12-19T08:34:16;101015.50;;;-6.81;58.36
63343;BME280;49465;57.664;39.686;2022-12-19T08:36:42;101003.06;;;-6.64;57.10
63343;BME280;49465;57.664;39.686;2022-12-19T08:39:11;101010.63;;;-7.57;60.45
63343;BME280;49465;57.664;39.686;2022-12-19T08:41:37;101002.81;;;-6.78;58.90
63343;BME280;49465;57.664;39.686;2022-12-19T08:44:04;100995.50;;;-6.58;57.64
63343;BME280;49465;57.664;39.686;2022-12-19T08:46:30;100992.22;;;-6.52;59.19
63343;BME280;49465;57.664;39.686;2022-12-19T08:49:02;100984.66;;;-6.46;58.79
63343;BME280;49465;57.664;39.686;2022-12-19T08:51:34;100985.53;;;-6.44;59.53
63343;BME280;49465;57.664;39.686;2022-12-19T08:54:01;100987.34;;;-6.37;57.16
63343;BME280;49465;57.664;39.686;2022-12-19T08:56:29;100981.47;;;-6.32;56.69
63343;BME280;49465;57.664;39.686;2022-12-19T08:58:56;100983.25;;;-6.27;57.09
63343;BME280;49465;57.664;39.686;2022-12-19T09:01:22;100983.28;;;-6.24;56.73
63343;BME280;49465;57.664;39.686;2022-12-19T09:03:51;100982.50;;;-6.20;57.08
63343;BME280;49465;57.664;39.686;2022-12-19T09:06:17;100982.69;;;-7.11;59.64
63343;BME280;49465;57.664;39.686;2022-12-19T09:08:44;100978.09;;;-6.30;59.74
63343;BME280;49465;57.664;39.686;2022-12-19T09:11:13;100986.22;;;-7.03;60.49
63343;BME280;49465;57.664;39.686;2022-12-19T09:13:41;100973.94;;;-6.25;60.33
63343;BME280;49465;57.664;39.686;2022-12-19T09:16:14;100978.41;;;-6.08;59.37
63343;BME280;49465;57.664;39.686;2022-12-19T09:18:47;100979.44;;;-5.97;59.47
63343;BME280;49465;57.664;39.686;2022-12-19T09:21:15;100973.81;;;-6.83;60.43
63343;BME280;49465;57.664;39.686;2022-12-19T09:23:50;100979.38;;;-6.02;60.52
63343;BME280;49465;57.664;39.686;2022-12-19T09:26:23;100967.63;;;-5.87;59.12
63343;BME280;49465;57.664;39.686;2022-12-19T09:28:50;100976.25;;;-5.79;58.93
63343;BME280;49465;57.664;39.686;2022-12-19T09:31:22;100970.34;;;-5.73;59.36
63343;BME280;49465;57.664;39.686;2022-12-19T09:34:12;100974.00;;;-6.20;62.29
63343;BME280;49465;57.664;39.686;2022-12-19T09:36:39;100968.53;;;-5.81;60.12
63343;BME280;49465;57.664;39.686;2022-12-19T09:39:05;100971.28;;;-5.68;59.25
63343;BME280;49465;57.664;39.686;2022-12-19T09:47:26;100954.44;;;-5.52;58.49
63343;BME280;49465;57.664;39.686;2022-12-19T09:49:58;100956.09;;;-6.23;60.97
63343;BME280;49465;57.664;39.686;2022-12-19T09:52:49;100947.56;;;-5.55;59.76
63343;BME280;49465;57.664;39.686;2022-12-19T09:55:43;100946.91;;;-5.40;57.82
63343;BME280;49465;57.664;39.686;2022-12-19T10:01:32;100948.69;;;-6.05;61.72
63343;BME280;49465;57.664;39.686;2022-12-19T10:04:13;100946.88;;;-5.42;60.46
63343;BME280;49465;57.664;39.686;2022-12-19T10:06:45;100948.78;;;-5.25;60.08
63343;BME280;49465;57.664;39.686;2022-12-19T10:09:18;100949.72;;;-5.17;59.13
63343;BME280;49465;57.664;39.686;2022-12-19T10:14:35;100943.84;;;-5.08;58.28
63343;BME280;49465;57.664;39.686;2022-12-19T10:23:00;100939.50;;;-5.16;59.16
63343;BME280;49465;57.664;39.686;2022-12-19T10:37:08;100926.34;;;-5.52;62.54
63343;BME280;49465;57.664;39.686;2022-12-19T10:39:49;100936.31;;;-4.93;58.86
63343;BME280;49465;57.664;39.686;2022-12-19T10:42:40;100935.59;;;-4.78;58.00
63343;BME280;49465;57.664;39.686;2022-12-19T10:45:20;100927.16;;;-4.68;58.15
63343;BME280;49465;57.664;39.686;2022-12-19T10:47:54;100931.63;;;-5.34;61.55
63343;BME280;49465;57.664;39.686;2022-12-19T10:50:31;100928.88;;;-5.54;62.50
63343;BME280;49465;57.664;39.686;2022-12-19T10:53:09;100933.84;;;-4.81;58.89
63343;BME280;49465;57.664;39.686;2022-12-19T10:58:27;100934.78;;;-4.72;59.82
63343;BME280;49465;57.664;39.686;2022-12-19T11:01:14;100922.97;;;-4.55;58.89
63343;BME280;49465;57.664;39.686;2022-12-19T11:04:17;100918.75;;;-4.50;57.88
63343;BME280;49465;57.664;39.686;2022-12-19T11:06:49;100926.47;;;-4.44;57.53
63343;BME280;49465;57.664;39.686;2022-12-19T11:11:59;100917.84;;;-4.55;58.52
63343;BME280;49465;57.664;39.686;2022-12-19T11:14:31;100918.84;;;-4.41;58.06
63343;BME280;49465;57.664;39.686;2022-12-19T11:17:03;100923.16;;;-4.35;57.83
63343;BME280;49465;57.664;39.686;2022-12-19T11:19:40;100927.44;;;-4.29;56.99
63343;BME280;49465;57.664;39.686;2022-12-19T11:22:28;100924.91;;;-4.25;57.57
63343;BME280;49465;57.664;39.686;2022-12-19T11:25:01;100924.94;;;-4.23;57.40
63343;BME280;49465;57.664;39.686;2022-12-19T11:27:36;100917.22;;;-4.22;57.49
63343;BME280;49465;57.664;39.686;2022-12-19T11:30:07;100917.25;;;-4.20;57.66
63343;BME280;49465;57.664;39.686;2022-12-19T11:32:42;100919.25;;;-4.94;60.13
63343;BME280;49465;57.664;39.686;2022-12-19T11:35:21;100921.47;;;-4.28;57.94
63343;BME280;49465;57.664;39.686;2022-12-19T11:38:01;100916.41;;;-4.16;57.67
63343;BME280;49465;57.664;39.686;2022-12-19T11:40:45;100914.75;;;-4.11;57.22
63343;BME280;49465;57.664;39.686;2022-12-19T11:48:49;100914.75;;;-4.11;57.73
63343;BME280;49465;57.664;39.686;2022-12-19T11:54:54;100923.28;;;-4.15;58.57
63343;BME280;49465;57.664;39.686;2022-12-19T11:57:24;100931.03;;;-4.03;57.83
63343;BME280;49465;57.664;39.686;2022-12-19T11:59:54;100927.91;;;-4.81;60.97
63343;BME280;49465;57.664;39.686;2022-12-19T12:05:33;100921.28;;;-4.53;61.75
63343;BME280;49465;57.664;39.686;2022-12-19T12:08:33;100923.31;;;-4.06;58.78
63343;BME280;49465;57.664;39.686;2022-12-19T12:14:21;100924.19;;;-4.04;58.09
63343;BME280;49465;57.664;39.686;2022-12-19T12:20:08;100925.91;;;-4.00;57.90
63343;BME280;49465;57.664;39.686;2022-12-19T12:23:01;100934.53;;;-3.85;57.55
63343;BME280;49465;57.664;39.686;2022-12-19T12:28:40;100938.81;;;-3.81;57.69
63343;BME280;49465;57.664;39.686;2022-12-19T12:31:41;100938.84;;;-3.78;56.95
63343;BME280;49465;57.664;39.686;2022-12-19T12:34:18;100941.41;;;-3.75;56.77
63343;BME280;49465;57.664;39.686;2022-12-19T12:44:58;100945.22;;;-4.49;61.19
63343;BME280;49465;57.664;39.686;2022-12-19T12:47:32;100947.31;;;-3.88;58.49
63343;BME280;49465;57.664;39.686;2022-12-19T12:50:03;100948.25;;;-3.75;57.71
63343;BME280;49465;57.664;39.686;2022-12-19T12:52:39;100947.41;;;-3.70;58.19
63343;BME280;49465;57.664;39.686;2022-12-19T12:57:57;100949.06;;;-3.81;59.16
63343;BME280;49465;57.664;39.686;2022-12-19T13:00:40;100946.97;;;-4.42;61.88
63343;BME280;49465;57.664;39.686;2022-12-19T13:03:49;100944.78;;;-3.81;60.06
63343;BME280;49465;57.664;39.686;2022-12-19T13:09:32;100947.47;;;-3.62;59.25
63343;BME280;49465;57.664;39.686;2022-12-19T13:12:23;100942.34;;;-3.61;59.04
63343;BME280;49465;57.664;39.686;2022-12-19T13:20:38;100937.97;;;-3.80;59.90
63343;BME280;49465;57.664;39.686;2022-12-19T13:25:54;100952.59;;;-3.58;58.14
63343;BME280;49465;57.664;39.686;2022-12-19T13:28:35;100937.50;;;-4.51;61.34
63343;BME280;49465;57.664;39.686;2022-12-19T13:34:10;100939.81;;;-3.54;58.53
63343;BME280;49465;57.664;39.686;2022-12-19T13:39:34;100949.22;;;-3.47;58.09
63343;BME280;49465;57.664;39.686;2022-12-19T13:42:16;100945.81;;;-3.46;57.75
63343;BME280;49465;57.664;39.686;2022-12-19T13:45:11;100941.56;;;-3.43;57.49
63343;BME280;49465;57.664;39.686;2022-12-19T13:47:47;100935.56;;;-3.40;57.46
63343;BME280;49465;57.664;39.686;2022-12-19T13:52:53;100938.13;;;-3.40;57.50
63343;BME280;49465;57.664;39.686;2022-12-19T13:55:26;100942.41;;;-3.36;56.93
63343;BME280;49465;57.664;39.686;2022-12-19T13:57:54;100942.81;;;-4.28;60.79
63343;BME280;49465;57.664;39.686;2022-12-19T14:00:33;100938.06;;;-3.51;58.18
63343;BME280;49465;57.664;39.686;2022-12-19T14:03:00;100936.41;;;-3.46;57.65
63343;BME280;49465;57.664;39.686;2022-12-19T14:05:37;100933.84;;;-3.44;58.30
63343;BME280;49465;57.664;39.686;2022-12-19T14:08:11;100937.78;;;-4.12;61.14
63343;BME280;49465;57.664;39.686;2022-12-19T14:10:46;100944.56;;;-4.18;61.71
63343;BME280;49465;57.664;39.686;2022-12-19T14:13:20;100938.63;;;-4.12;62.15
63343;BME280;49465;57.664;39.686;2022-12-19T14:16:15;100933.75;;;-3.69;60.34
63343;BME280;49465;57.664;39.686;2022-12-19T14:18:51;100938.06;;;-3.55;59.68
63343;BME280;49465;57.664;39.686;2022-12-19T14:21:25;100943.84;;;-4.01;62.42
63343;BME280;49465;57.664;39.686;2022-12-19T14:24:12;100950.03;;;-3.53;60.09
63343;BME280;49465;57.664;39.686;2022-12-19T14:26:53;100949.78;;;-4.05;63.03
63343;BME280;49465;57.664;39.686;2022-12-19T14:29:51;100949.00;;;-3.90;63.06
63343;BME280;49465;57.664;39.686;2022-12-19T14:32:29;100952.66;;;-3.47;60.94
63343;BME280;49465;57.664;39.686;2022-12-19T14:35:13;100951.78;;;-3.44;60.94
63343;BME280;49465;57.664;39.686;2022-12-19T14:37:57;100954.16;;;-3.89;63.51
63343;BME280;49465;57.664;39.686;2022-12-19T14:40:37;100951.75;;;-3.52;61.64
63343;BME280;49465;57.664;39.686;2022-12-19T14:43:28;100952.53;;;-3.76;64.05
63343;BME280;49465;57.664;39.686;2022-12-19T14:46:24;100953.38;;;-3.71;63.70
63343;BME280;49465;57.664;39.686;2022-12-19T14:49:29;100951.81;;;-3.32;62.03
63343;BME280;49465;57.664;39.686;2022-12-19T14:52:02;100957.81;;;-3.36;62.04
63343;BME280;49465;57.664;39.686;2022-12-19T14:54:44;100948.44;;;-3.20;62.02
63343;BME280;49465;57.664;39.686;2022-12-19T14:57:18;100960.31;;;-3.54;65.19
63343;BME280;49465;57.664;39.686;2022-12-19T14:59:50;100960.47;;;-2.94;61.39
63343;BME280;49465;57.664;39.686;2022-12-19T15:02:30;100957.94;;;-2.78;60.35
63343;BME280;49465;57.664;39.686;2022-12-19T15:05:04;100958.66;;;-3.45;63.52
63343;BME280;49465;57.664;39.686;2022-12-19T15:07:33;100964.75;;;-3.07;61.91
63343;BME280;49465;57.664;39.686;2022-12-19T15:10:39;100967.19;;;-3.44;64.03
63343;BME280;49465;57.664;39.686;2022-12-19T15:12:59;100963.72;;;-3.55;65.65
63343;BME280;49465;57.664;39.686;2022-12-19T15:16:02;100968.16;;;-3.02;63.58
63343;BME280;49465;57.664;39.686;2022-12-19T15:18:49;100963.06;;;-2.84;62.63
63343;BME280;49465;57.664;39.686;2022-12-19T15:21:24;100969.78;;;-3.35;65.35